sensor_id;sensor_type;location;lat;lon;timestamp;pressure;altitude;pressure_sealevel;temperature;humidity
28181;BME280;15464;50.988;10.318;2022-11-04T09:34:48;98023.56;;;9.33;91.90
28181;BME280;15464;50.988;10.318;2022-11-04T09:37:15;98025.13;;;9.36;92.68
28181;BME280;15464;50.988;10.318;2022-11-04T09:39:41;98029.25;;;9.38;91.56
28181;BME280;15464;50.988;10.318;2022-11-04T09:45:00;98041.66;;;9.38;89.28
28181;BME280;15464;50.988;10.318;2022-11-04T09:47:50;98040.94;;;9.45;89.61
28181;BME280;15464;50.988;10.318;2022-11-04T09:50:31;98045.13;;;9.48;88.64
28181;BME280;15464;50.988;10.318;2022-11-04T09:53:06;98049.56;;;9.47;88.20
28181;BME280;15464;50.988;10.318;2022-11-04T09:55:43;98044.81;;;9.51;87.91
28181;BME280;15464;50.988;10.318;2022-11-04T09:58:12;98043.31;;;9.48;87.62
28181;BME280;15464;50.988;10.318;2022-11-04T10:00:47;98039.91;;;9.56;87.67
28181;BME280;15464;50.988;10.318;2022-11-04T10:03:27;98041.53;;;9.66;88.14
28181;BME280;15464;50.988;10.318;2022-11-04T10:11:16;98029.06;;;9.77;86.16
28181;BME280;15464;50.988;10.318;2022-11-04T10:13:56;98019.06;;;9.70;86.08
28181;BME280;15464;50.988;10.318;2022-11-04T10:19:45;98018.69;;;9.93;86.96
28181;BME280;15464;50.988;10.318;2022-11-04T10:22:37;98027.28;;;9.95;86.33
28181;BME280;15464;50.988;10.318;2022-11-04T10:25:48;98014.81;;;10.05;86.40
28181;BME280;15464;50.988;10.318;2022-11-04T10:28:18;98013.00;;;10.05;85.54
28181;BME280;15464;50.988;10.318;2022-11-04T10:30:50;98011.88;;;10.08;84.48
28181;BME280;15464;50.988;10.318;2022-11-04T10:33:34;98019.81;;;10.08;84.82
28181;BME280;15464;50.988;10.318;2022-11-04T10:36:08;98021.34;;;10.10;84.81
28181;BME280;15464;50.988;10.318;2022-11-04T10:44:21;98015.16;;;10.20;83.67
28181;BME280;15464;50.988;10.318;2022-11-04T10:52:50;98011.88;;;10.43;83.69
28181;BME280;15464;50.988;10.318;2022-11-04T10:57:46;98005.66;;;10.52;83.42
28181;BME280;15464;50.988;10.318;2022-11-04T11:00:37;98002.19;;;10.52;81.75
28181;BME280;15464;50.988;10.318;2022-11-04T11:03:28;98002.72;;;10.38;81.03
28181;BME280;15464;50.988;10.318;2022-11-04T11:08:53;97993.19;;;10.45;81.17
28181;BME280;15464;50.988;10.318;2022-11-04T11:11:42;97989.03;;;10.42;80.19
28181;BME280;15464;50.988;10.318;2022-11-04T11:14:18;97986.97;;;10.54;80.32
28181;BME280;15464;50.988;10.318;2022-11-04T11:16:45;97981.88;;;10.61;80.84
28181;BME280;15464;50.988;10.318;2022-11-04T11:19:22;97985.31;;;10.79;81.11
28181;BME280;15464;50.988;10.318;2022-11-04T11:21:52;97982.75;;;10.69;79.41
28181;BME280;15464;50.988;10.318;2022-11-04T11:24:22;97991.03;;;10.66;78.90
28181;BME280;15464;50.988;10.318;2022-11-04T11:26:51;97990.41;;;10.72;79.67
28181;BME280;15464;50.988;10.318;2022-11-04T11:29:24;97989.56;;;10.72;79.00
28181;BME280;15464;50.988;10.318;2022-11-04T11:31:53;97995.72;;;10.72;79.51
28181;BME280;15464;50.988;10.318;2022-11-04T11:34:25;97990.84;;;10.85;79.67
28181;BME280;15464;50.988;10.318;2022-11-04T11:36:54;97982.47;;;10.98;79.42
28181;BME280;15464;50.988;10.318;2022-11-04T11:39:25;97981.78;;;10.96;78.63
28181;BME280;15464;50.988;10.318;2022-11-04T11:44:26;97995.38;;;11.27;80.13
28181;BME280;15464;50.988;10.318;2022-11-04T11:47:05;97996.16;;;11.19;77.67
28181;BME280;15464;50.988;10.318;2022-11-04T11:49:34;97998.81;;;11.19;78.42
28181;BME280;15464;50.988;10.318;2022-11-04T11:54:49;98011.09;;;11.20;78.25
28181;BME280;15464;50.988;10.318;2022-11-04T11:58:15;98012.84;;;11.38;77.90
28181;BME280;15464;50.988;10.318;2022-11-04T12:00:47;98014.06;;;11.51;77.55
28181;BME280;15464;50.988;10.318;2022-11-04T12:03:38;98018.09;;;11.63;77.06
28181;BME280;15464;50.988;10.318;2022-11-04T12:06:53;98014.47;;;11.64;76.04
28181;BME280;15464;50.988;10.318;2022-11-04T12:12:32;98027.66;;;11.82;76.17
28181;BME280;15464;50.988;10.318;2022-11-04T12:25:40;98009.94;;;11.49;73.30
28181;BME280;15464;50.988;10.318;2022-11-04T12:31:07;98001.44;;;11.45;73.71
28181;BME280;15464;50.988;10.318;2022-11-04T12:33:41;98005.59;;;11.48;73.29
28181;BME280;15464;50.988;10.318;2022-11-04T12:36:24;98005.44;;;11.49;73.92
28181;BME280;15464;50.988;10.318;2022-11-04T12:47:38;98008.50;;;11.70;72.60
28181;BME280;15464;50.988;10.318;2022-11-04T12:56:14;98005.28;;;11.85;71.41
28181;BME280;15464;50.988;10.318;2022-11-04T13:01:35;98004.16;;;12.20;71.41
28181;BME280;15464;50.988;10.318;2022-11-04T13:04:14;97990.59;;;12.55;71.97
28181;BME280;15464;50.988;10.318;2022-11-04T13:06:49;98000.19;;;12.64;68.39
28181;BME280;15464;50.988;10.318;2022-11-04T13:12:21;97993.34;;;13.10;68.19
28181;BME280;15464;50.988;10.318;2022-11-04T13:14:53;97993.16;;;13.20;67.47
28181;BME280;15464;50.988;10.318;2022-11-04T13:17:41;98008.47;;;13.10;66.07
28181;BME280;15464;50.988;10.318;2022-11-04T13:22:48;98013.50;;;12.97;66.85
28181;BME280;15464;50.988;10.318;2022-11-04T13:25:33;98025.97;;;12.96;67.53
28181;BME280;15464;50.988;10.318;2022-11-04T13:28:10;98023.31;;;12.80;66.99
28181;BME280;15464;50.988;10.318;2022-11-04T13:33:21;98031.75;;;13.08;68.06
28181;BME280;15464;50.988;10.318;2022-11-04T13:36:02;98035.41;;;13.07;67.04
28181;BME280;15464;50.988;10.318;2022-11-04T13:38:43;98029.44;;;13.21;67.39
28181;BME280;15464;50.988;10.318;2022-11-04T13:43:56;98025.25;;;13.35;66.90
28181;BME280;15464;50.988;10.318;2022-11-04T13:46:29;98024.94;;;13.29;65.25
28181;BME280;15464;50.988;10.318;2022-11-04T13:49:23;98027.78;;;12.96;63.97
28181;BME280;15464;50.988;10.318;2022-11-04T13:52:10;98030.59;;;12.94;64.03
28181;BME280;15464;50.988;10.318;2022-11-04T13:54:38;98038.13;;;12.99;66.58
28181;BME280;15464;50.988;10.318;2022-11-04T13:57:12;98037.13;;;12.75;65.37
28181;BME280;15464;50.988;10.318;2022-11-04T13:59:40;98043.09;;;12.69;65.56
28181;BME280;15464;50.988;10.318;2022-11-04T14:04:41;98053.44;;;12.72;67.07
28181;BME280;15464;50.988;10.318;2022-11-04T14:07:12;98059.38;;;12.74;66.83
28181;BME280;15464;50.988;10.318;2022-11-04T14:14:34;98072.38;;;12.61;66.53
28181;BME280;15464;50.988;10.318;2022-11-04T14:17:02;98068.22;;;12.67;66.35
28181;BME280;15464;50.988;10.318;2022-11-04T14:19:52;98083.84;;;12.70;66.49
28181;BME280;15464;50.988;10.318;2022-11-04T14:27:49;98088.81;;;12.48;66.30
28181;BME280;15464;50.988;10.318;2022-11-04T14:30:32;98092.00;;;12.60;66.09
28181;BME280;15464;50.988;10.318;2022-11-04T14:33:03;98093.66;;;12.69;66.57
28181;BME280;15464;50.988;10.318;2022-11-04T14:35:31;98094.31;;;12.63;66.12
28181;BME280;15464;50.988;10.318;2022-11-04T14:38:36;98102.63;;;12.60;66.75
28181;BME280;15464;50.988;10.318;2022-11-04T14:44:01;98103.94;;;12.48;67.46
28181;BME280;15464;50.988;10.318;2022-11-04T14:46:35;98115.25;;;12.50;67.87
28181;BME280;15464;50.988;10.318;2022-11-04T14:49:06;98112.56;;;12.34;66.87
28181;BME280;15464;50.988;10.318;2022-11-04T14:51:39;98114.34;;;12.17;67.22
28181;BME280;15464;50.988;10.318;2022-11-04T14:54:19;98115.50;;;11.81;66.56
28181;BME280;15464;50.988;10.318;2022-11-04T14:56:46;98121.06;;;11.95;68.16
28181;BME280;15464;50.988;10.318;2022-11-04T14:59:25;98119.38;;;11.86;68.27
28181;BME280;15464;50.988;10.318;2022-11-04T15:01:55;98123.47;;;11.81;68.42
28181;BME280;15464;50.988;10.318;2022-11-04T15:04:28;98121.50;;;11.83;68.23
28181;BME280;15464;50.988;10.318;2022-11-04T15:07:00;98122.19;;;11.59;68.94
28181;BME280;15464;50.988;10.318;2022-11-04T15:09:38;98125.13;;;11.56;68.84
28181;BME280;15464;50.988;10.318;2022-11-04T15:14:55;98126.50;;;11.60;69.12
28181;BME280;15464;50.988;10.318;2022-11-04T15:17:25;98125.59;;;11.51;68.63
28181;BME280;15464;50.988;10.318;2022-11-04T15:19:55;98128.94;;;11.53;69.34
28181;BME280;15464;50.988;10.318;2022-11-04T15:22:23;98128.94;;;11.53;69.68
28181;BME280;15464;50.988;10.318;2022-11-04T15:24:50;98128.13;;;11.53;69.99
28181;BME280;15464;50.988;10.318;2022-11-04T15:27:27;98127.44;;;11.51;70.04
28181;BME280;15464;50.988;10.318;2022-11-04T15:32:21;98125.53;;;11.35;70.79
28181;BME280;15464;50.988;10.318;2022-11-04T15:34:48;98131.31;;;11.30;70.91
28181;BME280;15464;50.988;10.318;2022-11-04T15:37:16;98136.06;;;11.27;71.01
28181;BME280;15464;50.988;10.318;2022-11-04T15:39:44;98134.88;;;11.21;70.69
28181;BME280;15464;50.988;10.318;2022-11-04T15:42:37;98138.28;;;11.14;71.12
28181;BME280;15464;50.988;10.318;2022-11-04T15:47:48;98141.66;;;10.98;71.53
28181;BME280;15464;50.988;10.318;2022-11-04T15:50:21;98145.91;;;10.91;71.87
28181;BME280;15464;50.988;10.318;2022-11-04T15:52:54;98141.50;;;10.82;72.47
28181;BME280;15464;50.988;10.318;2022-11-04T15:55:24;98143.94;;;10.75;72.44
28181;BME280;15464;50.988;10.318;2022-11-04T15:57:54;98141.03;;;10.69;72.68
28181;BME280;15464;50.988;10.318;2022-11-04T16:00:23;98139.00;;;10.63;73.16
28181;BME280;15464;50.988;10.318;2022-11-04T16:02:53;98148.56;;;10.56;73.85
28181;BME280;15464;50.988;10.318;2022-11-04T16:05:34;98150.53;;;10.54;73.78
28181;BME280;15464;50.988;10.318;2022-11-04T16:10:46;98158.94;;;10.49;74.85
28181;BME280;15464;50.988;10.318;2022-11-04T16:15:40;98156.47;;;10.38;75.22
28181;BME280;15464;50.988;10.318;2022-11-04T16:21:04;98159.41;;;10.17;76.04
28181;BME280;15464;50.988;10.318;2022-11-04T16:23:51;98163.59;;;10.10;76.11
28181;BME280;15464;50.988;10.318;2022-11-04T16:26:24;98180.47;;;9.99;76.85
28181;BME280;15464;50.988;10.318;2022-11-04T16:28:53;98173.28;;;9.92;76.89
28181;BME280;15464;50.988;10.318;2022-11-04T16:33:50;98184.03;;;9.81;77.41
28181;BME280;15464;50.988;10.318;2022-11-04T16:36:17;98185.63;;;9.74;77.41
28181;BME280;15464;50.988;10.318;2022-11-04T16:38:59;98190.78;;;9.65;77.91
28181;BME280;15464;50.988;10.318;2022-11-04T16:41:33;98191.91;;;9.63;77.60
28181;BME280;15464;50.988;10.318;2022-11-04T16:44:02;98191.38;;;9.59;78.27
28181;BME280;15464;50.988;10.318;2022-11-04T16:46:31;98191.94;;;9.53;78.02
28181;BME280;15464;50.988;10.318;2022-11-04T16:48:58;98196.41;;;9.43;78.82
28181;BME280;15464;50.988;10.318;2022-11-04T16:51:25;98200.31;;;9.39;78.81
28181;BME280;15464;50.988;10.318;2022-11-04T16:53:53;98202.56;;;9.34;78.83
28181;BME280;15464;50.988;10.318;2022-11-04T16:56:22;98197.84;;;9.28;79.34
28181;BME280;15464;50.988;10.318;2022-11-04T16:58:51;98210.66;;;9.23;79.13
28181;BME280;15464;50.988;10.318;2022-11-04T17:01:18;98205.63;;;9.20;79.49
28181;BME280;15464;50.988;10.318;2022-11-04T17:03:46;98209.81;;;9.13;80.43
28181;BME280;15464;50.988;10.318;2022-11-04T17:06:14;98208.44;;;9.09;80.66
28181;BME280;15464;50.988;10.318;2022-11-04T17:08:41;98215.13;;;9.03;80.81
28181;BME280;15464;50.988;10.318;2022-11-04T17:11:09;98222.63;;;8.98;80.75
28181;BME280;15464;50.988;10.318;2022-11-04T17:13:37;98234.31;;;8.96;81.14
28181;BME280;15464;50.988;10.318;2022-11-04T17:16:12;98230.84;;;8.95;81.79
28181;BME280;15464;50.988;10.318;2022-11-04T17:18:39;98236.69;;;8.99;82.54
28181;BME280;15464;50.988;10.318;2022-11-04T17:21:07;98236.53;;;8.90;82.61
28181;BME280;15464;50.988;10.318;2022-11-04T17:23:34;98234.88;;;8.80;82.59
28181;BME280;15464;50.988;10.318;2022-11-04T17:26:01;98240.53;;;8.75;82.75
28181;BME280;15464;50.988;10.318;2022-11-04T17:28:28;98242.50;;;8.73;82.59
28181;BME280;15464;50.988;10.318;2022-11-04T17:30:56;98240.13;;;8.70;82.46
28181;BME280;15464;50.988;10.318;2022-11-04T17:33:23;98249.03;;;8.69;83.00
28181;BME280;15464;50.988;10.318;2022-11-04T17:35:50;98252.09;;;8.65;83.32
28181;BME280;15464;50.988;10.318;2022-11-04T17:38:18;98255.13;;;8.60;83.17
28181;BME280;15464;50.988;10.318;2022-11-04T17:40:44;98256.34;;;8.56;83.48
28181;BME280;15464;50.988;10.318;2022-11-04T17:43:29;98269.56;;;8.46;84.59
28181;BME280;15464;50.988;10.318;2022-11-04T17:46:15;98263.72;;;8.43;84.26
28181;BME280;15464;50.988;10.318;2022-11-04T17:49:04;98267.34;;;8.42;84.08
28181;BME280;15464;50.988;10.318;2022-11-04T17:51:31;98271.19;;;8.38;83.83
28181;BME280;15464;50.988;10.318;2022-11-04T17:53:58;98275.78;;;8.36;84.46
28181;BME280;15464;50.988;10.318;2022-11-04T17:56:25;98278.69;;;8.33;84.42
28181;BME280;15464;50.988;10.318;2022-11-04T17:58:52;98278.69;;;8.33;84.38
28181;BME280;15464;50.988;10.318;2022-11-04T18:01:20;98289.25;;;8.33;84.62
28181;BME280;15464;50.988;10.318;2022-11-04T18:03:49;98292.03;;;8.31;84.56
28181;BME280;15464;50.988;10.318;2022-11-04T18:06:17;98294.78;;;8.30;85.15
28181;BME280;15464;50.988;10.318;2022-11-04T18:08:43;98294.78;;;8.30;85.44
28181;BME280;15464;50.988;10.318;2022-11-04T18:11:10;98295.66;;;8.30;84.96
28181;BME280;15464;50.988;10.318;2022-11-04T18:13:57;98302.72;;;8.30;85.04
28181;BME280;15464;50.988;10.318;2022-11-04T18:16:24;98306.31;;;8.29;85.54
28181;BME280;15464;50.988;10.318;2022-11-04T18:18:50;98298.41;;;8.29;85.83
28181;BME280;15464;50.988;10.318;2022-11-04T18:21:17;98307.03;;;8.31;85.31
28181;BME280;15464;50.988;10.318;2022-11-04T18:23:44;98303.44;;;8.32;85.32
28181;BME280;15464;50.988;10.318;2022-11-04T18:26:11;98303.44;;;8.32;84.89
28181;BME280;15464;50.988;10.318;2022-11-04T18:28:38;98307.63;;;8.34;85.36
28181;BME280;15464;50.988;10.318;2022-11-04T18:31:07;98313.75;;;8.35;85.59
28181;BME280;15464;50.988;10.318;2022-11-04T18:33:35;98315.56;;;8.34;85.75
28181;BME280;15464;50.988;10.318;2022-11-04T18:36:05;98319.66;;;8.27;87.94
28181;BME280;15464;50.988;10.318;2022-11-04T18:38:32;98331.78;;;8.30;87.81
28181;BME280;15464;50.988;10.318;2022-11-04T18:40:59;98334.34;;;8.20;87.86
28181;BME280;15464;50.988;10.318;2022-11-04T18:43:26;98333.06;;;8.15;89.03
28181;BME280;15464;50.988;10.318;2022-11-04T18:45:53;98331.41;;;8.14;89.69
28181;BME280;15464;50.988;10.318;2022-11-04T18:48:20;98330.00;;;8.09;92.22
28181;BME280;15464;50.988;10.318;2022-11-04T18:50:47;98337.78;;;8.11;92.58
28181;BME280;15464;50.988;10.318;2022-11-04T18:53:15;98342.81;;;8.14;93.08
28181;BME280;15464;50.988;10.318;2022-11-04T18:55:41;98340.03;;;8.16;93.25
28181;BME280;15464;50.988;10.318;2022-11-04T18:58:08;98342.56;;;8.17;93.77
28181;BME280;15464;50.988;10.318;2022-11-04T19:00:35;98345.03;;;8.19;93.93
28181;BME280;15464;50.988;10.318;2022-11-04T19:03:05;98346.72;;;8.20;93.05
28181;BME280;15464;50.988;10.318;2022-11-04T19:05:31;98352.00;;;8.20;93.57
28181;BME280;15464;50.988;10.318;2022-11-04T19:07:58;98346.47;;;8.23;93.01
28181;BME280;15464;50.988;10.318;2022-11-04T19:10:25;98352.44;;;8.25;93.40
28181;BME280;15464;50.988;10.318;2022-11-04T19:12:51;98353.03;;;8.28;93.66
28181;BME280;15464;50.988;10.318;2022-11-04T19:15:36;98359.28;;;8.27;94.23
28181;BME280;15464;50.988;10.318;2022-11-04T19:18:03;98368.53;;;8.33;93.47
28181;BME280;15464;50.988;10.318;2022-11-04T19:20:30;98366.59;;;8.35;93.85
28181;BME280;15464;50.988;10.318;2022-11-04T19:22:56;98366.31;;;8.38;93.35
28181;BME280;15464;50.988;10.318;2022-11-04T19:25:23;98366.31;;;8.38;94.50
28181;BME280;15464;50.988;10.318;2022-11-04T19:27:49;98373.28;;;8.39;93.94
28181;BME280;15464;50.988;10.318;2022-11-04T19:30:36;98374.25;;;8.38;94.43
28181;BME280;15464;50.988;10.318;2022-11-04T19:33:03;98382.16;;;8.38;95.15
28181;BME280;15464;50.988;10.318;2022-11-04T19:35:30;98389.25;;;8.37;95.68
28181;BME280;15464;50.988;10.318;2022-11-04T19:37:56;98394.09;;;8.32;96.26
28181;BME280;15464;50.988;10.318;2022-11-04T19:40:25;98384.63;;;8.30;95.97
28181;BME280;15464;50.988;10.318;2022-11-04T19:42:52;98395.44;;;8.27;96.92
28181;BME280;15464;50.988;10.318;2022-11-04T19:45:38;98402.78;;;8.23;97.76
28181;BME280;15464;50.988;10.318;2022-11-04T19:48:05;98398.28;;;8.14;99.28
28181;BME280;15464;50.988;10.318;2022-11-04T19:50:36;98409.22;;;8.09;100.00
28181;BME280;15464;50.988;10.318;2022-11-04T19:53:03;98414.25;;;8.13;100.00
28181;BME280;15464;50.988;10.318;2022-11-04T19:55:29;98414.13;;;8.14;100.00
28181;BME280;15464;50.988;10.318;2022-11-04T19:57:57;98413.69;;;8.09;100.00
28181;BME280;15464;50.988;10.318;2022-11-04T20:00:24;98418.69;;;8.12;100.00
28181;BME280;15464;50.988;10.318;2022-11-04T20:02:51;98426.50;;;8.14;100.00
28181;BME280;15464;50.988;10.318;2022-11-04T20:05:17;98421.09;;;8.15;100.00
28181;BME280;15464;50.988;10.318;2022-11-04T20:07:44;98431.41;;;8.18;99.52
28181;BME280;15464;50.988;10.318;2022-11-04T20:10:11;98429.84;;;8.16;99.92
28181;BME280;15464;50.988;10.318;2022-11-04T20:12:37;98429.56;;;8.19;99.99
28181;BME280;15464;50.988;10.318;2022-11-04T20:15:22;98424.28;;;8.19;99.47
28181;BME280;15464;50.988;10.318;2022-11-04T20:17:51;98433.78;;;8.21;99.27
28181;BME280;15464;50.988;10.318;2022-11-04T20:20:17;98432.69;;;8.24;98.92
28181;BME280;15464;50.988;10.318;2022-11-04T20:22:44;98442.28;;;8.25;99.28
28181;BME280;15464;50.988;10.318;2022-11-04T20:25:11;98443.00;;;8.27;98.55
28181;BME280;15464;50.988;10.318;2022-11-04T20:27:38;98447.31;;;8.28;98.18
28181;BME280;15464;50.988;10.318;2022-11-04T20:30:05;98456.06;;;8.28;98.58
28181;BME280;15464;50.988;10.318;2022-11-04T20:32:32;98455.47;;;8.25;98.75
28181;BME280;15464;50.988;10.318;2022-11-04T20:34:59;98455.47;;;8.25;98.82
28181;BME280;15464;50.988;10.318;2022-11-04T20:37:25;98458.00;;;8.26;98.65
28181;BME280;15464;50.988;10.318;2022-11-04T20:39:53;98457.16;;;8.26;99.26
28181;BME280;15464;50.988;10.318;2022-11-04T20:42:19;98461.59;;;8.25;99.27
28181;BME280;15464;50.988;10.318;2022-11-04T20:44:46;98466.88;;;8.25;99.52
28181;BME280;15464;50.988;10.318;2022-11-04T20:47:12;98471.09;;;8.28;99.37
28181;BME280;15464;50.988;10.318;2022-11-04T20:49:41;98477.34;;;8.27;99.32
28181;BME280;15464;50.988;10.318;2022-11-04T20:52:07;98479.13;;;8.26;100.00
28181;BME280;15464;50.988;10.318;2022-11-04T20:54:34;98475.66;;;8.26;100.00
28181;BME280;15464;50.988;10.318;2022-11-04T20:57:01;98481.66;;;8.28;100.00
28181;BME280;15464;50.988;10.318;2022-11-04T20:59:27;98477.22;;;8.28;100.00
28181;BME280;15464;50.988;10.318;2022-11-04T21:01:54;98483.34;;;8.29;100.00
28181;BME280;15464;50.988;10.318;2022-11-04T21:04:21;98493.06;;;8.28;100.00
28181;BME280;15464;50.988;10.318;2022-11-04T21:06:49;98493.91;;;8.29;100.00
28181;BME280;15464;50.988;10.318;2022-11-04T21:09:18;98492.94;;;8.30;100.00
28181;BME280;15464;50.988;10.318;2022-11-04T21:11:45;98494.16;;;8.26;100.00
28181;BME280;15464;50.988;10.318;2022-11-04T21:14:14;98494.94;;;8.17;100.00
28181;BME280;15464;50.988;10.318;2022-11-04T21:16:41;98495.78;;;8.17;100.00
28181;BME280;15464;50.988;10.318;2022-11-04T21:19:09;98491.44;;;8.16;100.00
28181;BME280;15464;50.988;10.318;2022-11-04T21:21:39;98499.69;;;8.23;100.00
28181;BME280;15464;50.988;10.318;2022-11-04T21:24:06;98503.31;;;8.22;100.00
28181;BME280;15464;50.988;10.318;2022-11-04T21:26:34;98512.78;;;8.24;100.00
28181;BME280;15464;50.988;10.318;2022-11-04T21:29:04;98510.84;;;8.26;100.00
28181;BME280;15464;50.988;10.318;2022-11-04T21:31:32;98516.97;;;8.27;100.00
28181;BME280;15464;50.988;10.318;2022-11-04T21:34:00;98516.97;;;8.27;100.00
28181;BME280;15464;50.988;10.318;2022-11-04T21:36:27;98521.69;;;8.23;100.00
28181;BME280;15464;50.988;10.318;2022-11-04T21:38:54;98527.81;;;8.24;100.00
28181;BME280;15464;50.988;10.318;2022-11-04T21:41:22;98525.84;;;8.26;100.00
28181;BME280;15464;50.988;10.318;2022-11-04T21:43:55;98523.22;;;8.26;100.00
28181;BME280;15464;50.988;10.318;2022-11-04T21:46:23;98524.16;;;8.25;100.00
28181;BME280;15464;50.988;10.318;2022-11-04T21:48:50;98526.81;;;8.25;100.00
28181;BME280;15464;50.988;10.318;2022-11-04T21:51:19;98528.75;;;8.23;100.00
28181;BME280;15464;50.988;10.318;2022-11-04T21:53:46;98525.63;;;8.29;100.00
28181;BME280;15464;50.988;10.318;2022-11-04T21:56:17;98519.97;;;8.33;100.00
28181;BME280;15464;50.988;10.318;2022-11-04T21:58:45;98517.44;;;8.32;100.00
28181;BME280;15464;50.988;10.318;2022-11-04T22:01:17;98521.06;;;8.31;100.00
28181;BME280;15464;50.988;10.318;2022-11-04T22:03:49;98528.97;;;8.31;100.00
28181;BME280;15464;50.988;10.318;2022-11-04T22:06:15;98520.34;;;8.29;99.95
28181;BME280;15464;50.988;10.318;2022-11-04T22:08:44;98529.22;;;8.28;100.00
28181;BME280;15464;50.988;10.318;2022-11-04T22:11:13;98531.84;;;8.28;100.00
28181;BME280;15464;50.988;10.318;2022-11-04T22:13:40;98535.34;;;8.28;100.00
28181;BME280;15464;50.988;10.318;2022-11-04T22:16:16;98539.78;;;8.28;99.98
28181;BME280;15464;50.988;10.318;2022-11-04T22:18:44;98535.94;;;8.32;100.00
28181;BME280;15464;50.988;10.318;2022-11-04T22:21:13;98538.75;;;8.30;100.00
28181;BME280;15464;50.988;10.318;2022-11-04T22:23:40;98539.56;;;8.31;100.00
28181;BME280;15464;50.988;10.318;2022-11-04T22:26:10;98545.66;;;8.31;100.00
28181;BME280;15464;50.988;10.318;2022-11-04T22:28:37;98537.88;;;8.30;100.00
28181;BME280;15464;50.988;10.318;2022-11-04T22:31:09;98547.34;;;8.32;100.00
28181;BME280;15464;50.988;10.318;2022-11-04T22:33:37;98545.78;;;8.30;100.00
28181;BME280;15464;50.988;10.318;2022-11-04T22:36:07;98544.09;;;8.29;100.00
28181;BME280;15464;50.988;10.318;2022-11-04T22:38:35;98553.13;;;8.26;100.00
28181;BME280;15464;50.988;10.318;2022-11-04T22:41:03;98548.78;;;8.25;100.00
28181;BME280;15464;50.988;10.318;2022-11-04T22:43:31;98558.66;;;8.23;100.00
28181;BME280;15464;50.988;10.318;2022-11-04T22:46:04;98557.81;;;8.23;100.00
28181;BME280;15464;50.988;10.318;2022-11-04T22:48:31;98557.38;;;8.18;100.00
28181;BME280;15464;50.988;10.318;2022-11-04T22:50:58;98562.66;;;8.18;100.00
28181;BME280;15464;50.988;10.318;2022-11-04T22:53:25;98564.31;;;8.19;100.00
28181;BME280;15464;50.988;10.318;2022-11-04T22:55:52;98564.69;;;8.14;100.00
28181;BME280;15464;50.988;10.318;2022-11-04T22:58:19;98565.53;;;8.15;100.00
28181;BME280;15464;50.988;10.318;2022-11-04T23:00:45;98562.16;;;8.13;100.00
28181;BME280;15464;50.988;10.318;2022-11-04T23:03:18;98568.28;;;8.13;100.00
28181;BME280;15464;50.988;10.318;2022-11-04T23:05:45;98574.41;;;8.14;100.00
28181;BME280;15464;50.988;10.318;2022-11-04T23:08:12;98575.97;;;8.16;100.00
28181;BME280;15464;50.988;10.318;2022-11-04T23:10:38;98583.78;;;8.18;100.00
28181;BME280;15464;50.988;10.318;2022-11-04T23:13:23;98582.94;;;8.17;100.00
28181;BME280;15464;50.988;10.318;2022-11-04T23:16:10;98579.19;;;8.20;100.00
28181;BME280;15464;50.988;10.318;2022-11-04T23:18:56;98575.59;;;8.21;100.00
28181;BME280;15464;50.988;10.318;2022-11-04T23:21:23;98583.63;;;8.19;100.00
28181;BME280;15464;50.988;10.318;2022-11-04T23:24:08;98581.97;;;8.18;100.00
28181;BME280;15464;50.988;10.318;2022-11-04T23:26:55;98593.38;;;8.19;100.00
28181;BME280;15464;50.988;10.318;2022-11-04T23:29:22;98588.91;;;8.19;100.00
28181;BME280;15464;50.988;10.318;2022-11-04T23:32:07;98582.56;;;8.22;100.00
28181;BME280;15464;50.988;10.318;2022-11-04T23:34:33;98587.84;;;8.22;100.00
28181;BME280;15464;50.988;10.318;2022-11-04T23:37:18;98590.03;;;8.17;100.00
28181;BME280;15464;50.988;10.318;2022-11-04T23:39:48;98597.22;;;8.15;100.00
28181;BME280;15464;50.988;10.318;2022-11-04T23:42:20;98591.38;;;8.11;100.00
28181;BME280;15464;50.988;10.318;2022-11-04T23:44:53;98597.50;;;8.12;100.00
28181;BME280;15464;50.988;10.318;2022-11-04T23:47:41;98598.22;;;8.02;100.00
28181;BME280;15464;50.988;10.318;2022-11-04T23:50:29;98600.13;;;8.00;100.00
28181;BME280;15464;50.988;10.318;2022-11-04T23:53:16;98602.06;;;7.98;100.00
28181;BME280;15464;50.988;10.318;2022-11-04T23:56:01;98619.38;;;7.91;100.00
28181;BME280;15464;50.988;10.318;2022-11-04T23:58:47;98615.03;;;7.90;100.00
